Time;durP1;ratioP1;P1;durP2;ratioP2;P2;SDS_P1;SDS_P2;PMS_P1;PMS_P2;Temp;Humidity;BMP_temperature;BMP_pressure;BME280_temperature;BME280_humidity;BME280_pressure;Samples;Min_cycle;Max_cycle;Signal;HPM_P1;HPM_P2
2022/12/08 00:00:11;;;;;;;9.82;1.88;;;7.30;1.00;;;;;;5070556;28;20047;-63
2022/12/08 00:02:37;;;;;;;10.45;1.50;;;7.40;1.00;;;;;;5065031;28;20040;-63
2022/12/08 00:10:31;;;;;;;8.27;1.65;;;7.30;1.00;;;;;;5068462;28;20055;-63
2022/12/08 00:12:57;;;;;;;13.95;1.98;;;7.10;9.50;;;;;;5063203;28;21947;-62
2022/12/08 00:15:22;;;;;;;12.10;2.00;;;7.30;59.20;;;;;;5068129;28;20489;-63
2022/12/08 00:17:48;;;;;;;9.82;1.70;;;7.20;92.70;;;;;;5066250;28;20043;-62
2022/12/08 00:20:14;;;;;;;7.82;1.50;;;7.10;99.90;;;;;;5074693;28;20040;-62
2022/12/08 00:22:39;;;;;;;8.20;1.23;;;7.30;99.90;;;;;;5061635;28;20039;-62
2022/12/08 00:25:05;;;;;;;9.38;1.83;;;7.20;99.90;;;;;;5070260;28;20488;-63
2022/12/08 00:27:31;;;;;;;10.00;1.30;;;7.00;99.90;;;;;;5063822;28;20032;-63
2022/12/08 00:29:56;;;;;;;12.45;1.67;;;7.10;99.90;;;;;;5064249;28;20047;-63
2022/12/08 00:32:22;;;;;;;7.38;1.73;;;7.00;99.90;;;;;;5063871;28;20037;-63
2022/12/08 00:34:47;;;;;;;20.65;2.70;;;6.90;99.90;;;;;;5070090;28;20908;-64
2022/12/08 00:37:13;;;;;;;10.70;2.20;;;6.70;99.90;;;;;;5064486;28;20071;-62
2022/12/08 00:39:38;;;;;;;13.10;2.08;;;6.40;95.50;;;;;;5064328;28;20050;-63
2022/12/08 00:42:13;;;;;;;20.52;2.30;;;6.30;99.90;;;;;;5063739;28;20185;-63
2022/12/08 00:44:40;;;;;;;7.22;1.40;;;6.50;99.90;;;;;;5063676;28;20075;-63
2022/12/08 00:47:06;;;;;;;9.77;1.55;;;6.40;99.90;;;;;;5063473;28;20461;-63
2022/12/08 00:49:31;;;;;;;7.20;1.25;;;6.30;99.90;;;;;;5069267;28;20047;-62
2022/12/08 00:51:57;;;;;;;12.93;1.15;;;6.50;99.90;;;;;;5072086;28;20123;-63
2022/12/08 00:54:23;;;;;;;9.43;1.58;;;6.50;99.90;;;;;;5066795;28;20036;-63
2022/12/08 00:56:49;;;;;;;12.48;1.88;;;6.40;99.90;;;;;;5067089;28;20162;-63
2022/12/08 00:59:15;;;;;;;10.65;1.50;;;6.40;99.90;;;;;;5063709;28;20047;-63
2022/12/08 01:01:43;;;;;;;11.52;1.40;;;6.60;99.90;;;;;;5064282;28;20076;-63
2022/12/08 01:04:11;;;;;;;4.15;0.93;;;6.60;99.90;;;;;;5066552;28;20588;-63
2022/12/08 01:06:38;;;;;;;5.95;1.08;;;6.50;99.90;;;;;;5067996;28;20525;-62
2022/12/08 01:09:05;;;;;;;5.53;1.10;;;6.50;99.90;;;;;;5063935;28;20366;-63
2022/12/08 01:11:32;;;;;;;2.75;0.85;;;6.50;99.90;;;;;;5065442;28;20169;-64
2022/12/08 01:13:57;;;;;;;4.95;1.00;;;6.60;99.90;;;;;;5067794;28;20473;-62
2022/12/08 01:16:27;;;;;;;3.17;0.60;;;6.70;99.90;;;;;;5062983;28;21401;-64
2022/12/08 01:18:53;;;;;;;9.68;1.08;;;6.70;99.90;;;;;;5064530;28;20559;-63
2022/12/08 01:21:19;;;;;;;7.78;1.35;;;6.70;99.90;;;;;;5073138;28;20050;-63
2022/12/08 01:23:45;;;;;;;10.27;1.00;;;6.50;99.90;;;;;;5077935;28;20118;-63
2022/12/08 01:26:13;;;;;;;6.07;1.00;;;6.50;99.90;;;;;;5069827;28;20046;-63
2022/12/08 01:28:39;;;;;;;3.58;1.10;;;6.50;1.00;;;;;;5065272;28;20046;-63
2022/12/08 01:31:11;;;;;;;1.92;1.08;;;6.50;1.00;;;;;;5066567;28;20031;-64
2022/12/08 01:33:37;;;;;;;8.60;1.10;;;6.70;1.00;;;;;;5072395;28;20048;-62
2022/12/08 01:36:04;;;;;;;9.23;1.30;;;6.70;1.00;;;;;;5069818;28;20044;-62
2022/12/08 01:38:30;;;;;;;4.50;1.20;;;7.00;1.00;;;;;;5064632;28;20036;-62
2022/12/08 01:40:56;;;;;;;2.83;0.98;;;6.90;1.00;;;;;;5066824;28;21301;-62
2022/12/08 01:43:21;;;;;;;3.92;1.35;;;7.00;1.00;;;;;;5070298;28;20320;-63
2022/12/08 01:45:47;;;;;;;6.05;1.08;;;7.00;1.00;;;;;;5066440;28;20035;-63
2022/12/08 01:48:19;;;;;;;4.60;1.10;;;6.90;1.00;;;;;;5066709;28;20519;-63
2022/12/08 01:50:46;;;;;;;7.10;1.02;;;6.90;1.00;;;;;;5067024;28;20044;-63
2022/12/08 01:53:22;;;;;;;4.45;1.20;;;7.00;1.00;;;;;;5076116;28;20145;-63
2022/12/08 01:55:53;;;;;;;4.30;1.10;;;6.80;1.00;;;;;;5066051;28;20045;-62
2022/12/08 01:58:28;;;;;;;3.75;1.05;;;6.70;1.00;;;;;;5070068;28;20043;-62
2022/12/08 02:00:53;;;;;;;5.25;1.10;;;6.60;1.00;;;;;;5066140;28;20070;-62
2022/12/08 02:03:27;;;;;;;3.17;0.85;;;6.70;1.00;;;;;;5068988;28;20036;-64
2022/12/08 02:05:53;;;;;;;11.65;1.45;;;6.80;1.00;;;;;;5063825;28;20506;-64
2022/12/08 02:08:20;;;;;;;7.00;1.23;;;6.50;1.00;;;;;;5068830;28;20037;-63
2022/12/08 02:10:46;;;;;;;3.88;1.10;;;6.70;1.00;;;;;;5065905;28;20157;-63
2022/12/08 02:13:14;;;;;;;7.93;1.27;;;6.60;1.00;;;;;;5068167;28;20113;-63
2022/12/08 02:16:00;;;;;;;6.32;1.20;;;7.00;1.00;;;;;;5066815;28;20545;-62
2022/12/08 02:18:47;;;;;;;3.72;0.77;;;6.90;1.00;;;;;;5066572;28;20048;-63
2022/12/08 02:21:15;;;;;;;6.63;1.15;;;6.70;1.00;;;;;;5068960;28;20524;-62
2022/12/08 02:23:58;;;;;;;6.00;1.05;;;6.70;1.00;;;;;;5078534;28;20131;-62
2022/12/08 02:26:40;;;;;;;7.05;1.08;;;6.80;1.00;;;;;;5069792;28;20040;-62
2022/12/08 02:29:39;;;;;;;5.28;1.08;;;6.50;3.00;;;;;;5067618;28;20044;-62
2022/12/08 02:32:54;;;;;;;6.07;1.30;;;6.80;48.10;;;;;;5073584;28;20482;-62
2022/12/08 02:35:39;;;;;;;5.10;1.10;;;6.60;99.90;;;;;;5075100;28;20123;-63
2022/12/08 02:38:30;;;;;;;7.35;1.35;;;6.80;88.00;;;;;;5067142;28;20111;-62
2022/12/08 02:41:04;;;;;;;10.73;1.40;;;6.60;77.20;;;;;;5068884;28;20055;-62
2022/12/08 02:43:54;;;;;;;8.57;1.27;;;6.70;55.90;;;;;;5069287;28;20116;-62
2022/12/08 02:46:26;;;;;;;9.25;1.40;;;6.60;61.80;;;;;;5065678;28;20051;-62
2022/12/08 02:48:52;;;;;;;10.00;1.30;;;6.90;81.10;;;;;;5066927;28;20039;-63
2022/12/08 02:51:18;;;;;;;5.50;1.23;;;6.60;96.80;;;;;;5065684;28;20071;-62
2022/12/08 02:53:44;;;;;;;9.18;1.30;;;6.60;93.10;;;;;;5071261;28;20040;-62
2022/12/08 02:56:34;;;;;;;6.43;1.20;;;6.80;42.70;;;;;;5070261;28;20416;-63
2022/12/08 02:59:09;;;;;;;5.03;1.23;;;6.80;1.00;;;;;;5070229;28;20039;-62
2022/12/08 03:01:50;;;;;;;2.92;0.90;;;6.60;1.00;;;;;;5063388;28;20045;-62
2022/12/08 03:04:57;;;;;;;4.50;1.05;;;6.70;1.00;;;;;;5069635;28;20047;-63
2022/12/08 03:07:37;;;;;;;4.38;0.90;;;6.70;1.00;;;;;;5058018;28;20059;-63
2022/12/08 03:10:11;;;;;;;5.30;0.82;;;6.50;1.00;;;;;;5066083;28;20040;-63
2022/12/08 03:12:42;;;;;;;5.15;0.98;;;6.70;1.00;;;;;;5069264;28;20052;-62
2022/12/08 03:15:11;;;;;;;5.10;0.82;;;6.70;1.00;;;;;;5066206;28;21335;-63
2022/12/08 03:17:40;;;;;;;4.20;0.73;;;6.70;1.00;;;;;;5067823;28;20064;-62
2022/12/08 03:20:11;;;;;;;4.10;0.85;;;6.70;1.00;;;;;;5064760;28;20402;-62
2022/12/08 03:22:38;;;;;;;1.75;0.70;;;6.70;1.00;;;;;;5071124;28;20550;-63
2022/12/08 03:25:04;;;;;;;1.73;0.80;;;6.60;1.00;;;;;;5069273;28;20051;-62
2022/12/08 03:27:31;;;;;;;4.13;0.82;;;6.70;1.00;;;;;;5068167;28;20054;-62
2022/12/08 03:29:58;;;;;;;2.22;1.02;;;6.50;1.00;;;;;;5063906;28;20161;-62
2022/12/08 03:32:48;;;;;;;7.53;1.42;;;6.70;1.00;;;;;;5067369;28;20558;-63
2022/12/08 03:35:18;;;;;;;9.73;1.20;;;6.80;1.00;;;;;;5067355;28;20035;-63
2022/12/08 03:37:44;;;;;;;10.38;1.40;;;6.60;1.00;;;;;;5064613;28;20402;-63
2022/12/08 03:40:13;;;;;;;5.45;1.00;;;6.80;1.00;;;;;;5063895;28;20051;-62
2022/12/08 03:42:38;;;;;;;7.38;1.00;;;6.70;1.00;;;;;;5067664;28;20041;-62
2022/12/08 03:45:05;;;;;;;6.95;1.13;;;6.90;1.00;;;;;;5065639;28;20048;-63
2022/12/08 03:47:30;;;;;;;4.72;1.00;;;6.90;99.90;;;;;;5067140;28;20043;-63
2022/12/08 03:49:56;;;;;;;5.95;1.20;;;6.90;99.90;;;;;;5061984;28;20402;-62
2022/12/08 03:52:21;;;;;;;5.60;1.10;;;6.90;99.90;;;;;;5070523;28;20147;-62
2022/12/08 03:54:47;;;;;;;3.95;0.98;;;6.90;99.90;;;;;;5066508;28;20036;-63
2022/12/08 03:57:13;;;;;;;4.03;1.08;;;7.00;99.90;;;;;;5074198;28;20051;-63
2022/12/08 03:59:38;;;;;;;6.13;0.80;;;7.00;99.90;;;;;;5063350;28;21581;-63
2022/12/08 04:02:04;;;;;;;4.88;1.00;;;6.90;99.90;;;;;;5071403;28;20098;-63
2022/12/08 04:04:30;;;;;;;3.50;1.08;;;6.90;99.90;;;;;;5064186;28;20103;-63
2022/12/08 04:06:55;;;;;;;7.85;1.00;;;7.10;99.90;;;;;;5063320;28;20112;-62
2022/12/08 04:09:21;;;;;;;9.07;1.63;;;7.10;99.90;;;;;;5063521;28;20662;-63
2022/12/08 04:11:47;;;;;;;3.80;1.20;;;7.10;99.90;;;;;;5064850;28;21375;-62
2022/12/08 04:14:12;;;;;;;1.90;0.70;;;7.10;99.90;;;;;;5063430;28;20489;-63
2022/12/08 04:16:38;;;;;;;6.43;1.33;;;7.10;99.90;;;;;;5064305;28;20143;-63
2022/12/08 04:19:03;;;;;;;1.10;0.50;;;7.20;74.60;;;;;;5045470;28;20087;-63
2022/12/08 04:21:29;;;;;;;1.33;0.47;;;7.20;1.00;;;;;;5065284;28;20035;-62
2022/12/08 04:23:54;;;;;;;2.78;0.70;;;7.20;1.00;;;;;;5064590;28;20486;-63
2022/12/08 04:26:20;;;;;;;3.67;0.68;;;7.20;99.90;;;;;;5067660;28;20040;-62
2022/12/08 04:28:46;;;;;;;0.60;0.60;;;7.20;99.90;;;;;;5070299;28;21085;-62
2022/12/08 04:31:12;;;;;;;3.60;0.70;;;7.10;99.90;;;;;;5067542;28;20032;-62
2022/12/08 04:33:37;;;;;;;7.32;0.82;;;7.20;99.90;;;;;;5064667;28;20477;-62
2022/12/08 04:36:05;;;;;;;4.55;0.80;;;7.10;99.90;;;;;;5064329;28;20131;-62
2022/12/08 04:38:30;;;;;;;1.92;0.65;;;7.20;99.90;;;;;;5067994;28;20132;-62
2022/12/08 04:40:56;;;;;;;5.43;1.08;;;7.20;99.90;;;;;;5067783;28;20043;-63
2022/12/08 04:43:21;;;;;;;4.22;1.10;;;7.20;99.90;;;;;;5065397;28;20036;-63
2022/12/08 04:45:47;;;;;;;5.25;1.10;;;7.20;99.90;;;;;;5062129;28;21873;-62
2022/12/08 04:48:13;;;;;;;4.75;1.02;;;7.20;99.90;;;;;;5064898;28;20087;-63
2022/12/08 04:50:40;;;;;;;5.57;1.20;;;7.10;99.90;;;;;;5062656;28;20032;-62
2022/12/08 04:53:07;;;;;;;5.55;1.00;;;7.10;99.90;;;;;;5063539;28;20139;-63
2022/12/08 04:55:33;;;;;;;6.53;1.15;;;7.10;99.90;;;;;;5062829;28;20119;-62
2022/12/08 04:57:58;;;;;;;5.32;1.30;;;7.10;99.90;;;;;;5064272;28;20046;-62
2022/12/08 05:00:24;;;;;;;5.32;1.25;;;7.10;99.90;;;;;;5064718;28;20137;-62
2022/12/08 05:02:49;;;;;;;6.97;1.23;;;7.10;99.90;;;;;;5063924;28;20134;-62
2022/12/08 05:05:15;;;;;;;8.77;1.38;;;7.10;99.90;;;;;;5062471;28;20039;-63
2022/12/08 05:07:41;;;;;;;3.65;1.15;;;7.10;99.90;;;;;;5065703;28;20051;-62
2022/12/08 05:10:07;;;;;;;9.07;1.35;;;7.10;99.90;;;;;;5063725;28;20039;-63
2022/12/08 05:12:33;;;;;;;16.58;1.60;;;7.10;99.90;;;;;;5063965;28;20044;-62
2022/12/08 05:14:58;;;;;;;9.43;1.40;;;7.10;99.90;;;;;;5062376;28;20413;-63
2022/12/08 05:17:24;;;;;;;7.85;1.23;;;7.10;1.00;;;;;;5065476;28;20125;-62
2022/12/08 05:19:49;;;;;;;5.82;1.50;;;7.10;1.00;;;;;;5068835;28;20553;-63
2022/12/08 05:22:15;;;;;;;9.50;1.83;;;7.00;99.90;;;;;;5063840;28;20067;-62
2022/12/08 05:24:41;;;;;;;9.25;1.80;;;6.80;99.90;;;;;;5063045;28;20036;-63
2022/12/08 05:27:06;;;;;;;5.53;1.30;;;6.80;99.90;;;;;;5062910;28;20390;-63
2022/12/08 05:29:32;;;;;;;10.80;2.00;;;6.70;99.90;;;;;;5073264;28;20446;-62
2022/12/08 05:31:57;;;;;;;15.52;2.00;;;6.70;99.90;;;;;;5063736;28;20036;-63
2022/12/08 05:34:23;;;;;;;10.70;1.90;;;6.70;99.90;;;;;;5064095;28;20042;-63
2022/12/08 05:36:48;;;;;;;12.70;2.65;;;6.80;99.90;;;;;;5066376;28;20036;-62
2022/12/08 05:39:14;;;;;;;11.13;2.13;;;6.80;99.90;;;;;;5063020;28;20390;-63
2022/12/08 05:41:40;;;;;;;10.82;2.20;;;6.80;1.00;;;;;;5064040;28;20089;-63
2022/12/08 05:44:06;;;;;;;16.42;2.40;;;6.70;1.00;;;;;;5061395;28;20073;-62
2022/12/08 05:46:32;;;;;;;13.10;2.33;;;6.60;1.00;;;;;;5061830;28;20143;-62
2022/12/08 05:48:59;;;;;;;9.32;1.73;;;6.60;1.00;;;;;;5066665;28;20051;-62
2022/12/08 05:51:25;;;;;;;11.43;2.03;;;6.70;1.00;;;;;;5063232;28;20098;-63
2022/12/08 05:53:52;;;;;;;11.40;2.00;;;6.50;1.00;;;;;;5063608;28;20040;-64
2022/12/08 05:56:18;;;;;;;9.43;2.05;;;6.50;1.00;;;;;;5063556;28;20139;-62
2022/12/08 05:58:44;;;;;;;9.07;1.83;;;6.40;1.00;;;;;;5065889;28;20036;-62
2022/12/08 06:01:28;;;;;;;13.35;2.03;;;6.30;1.00;;;;;;5070468;28;20189;-62
2022/12/08 06:03:55;;;;;;;14.35;2.20;;;6.40;1.00;;;;;;5059135;28;20036;-62
2022/12/08 06:06:21;;;;;;;10.20;1.83;;;6.10;1.00;;;;;;5064300;28;20516;-63
2022/12/08 06:08:47;;;;;;;10.73;2.17;;;6.30;1.00;;;;;;5073641;28;20028;-63
2022/12/08 06:11:23;;;;;;;15.38;2.00;;;6.20;1.00;;;;;;5070693;27;20097;-63
2022/12/08 06:13:49;;;;;;;10.57;1.90;;;6.10;1.00;;;;;;5069939;28;20071;-63
2022/12/08 06:16:15;;;;;;;7.90;1.90;;;6.20;1.00;;;;;;5090646;28;20073;-62
2022/12/08 06:18:41;;;;;;;11.07;1.80;;;6.00;1.00;;;;;;5092666;28;20044;-62
2022/12/08 06:21:08;;;;;;;8.10;1.60;;;6.20;1.00;;;;;;5088600;28;20044;-62
2022/12/08 06:23:34;;;;;;;14.18;1.83;;;6.00;1.00;;;;;;5086432;28;20036;-62
2022/12/08 06:26:04;;;;;;;7.47;1.80;;;6.10;1.00;;;;;;5073243;28;20058;-62
2022/12/08 06:28:31;;;;;;;7.15;1.90;;;6.10;1.00;;;;;;5070149;28;20044;-62
2022/12/08 06:30:57;;;;;;;18.77;2.42;;;5.90;1.00;;;;;;5077479;28;20397;-62
2022/12/08 06:33:24;;;;;;;6.18;1.48;;;6.00;1.00;;;;;;5084048;28;20413;-63
2022/12/08 06:35:49;;;;;;;8.35;1.88;;;5.90;1.00;;;;;;5073507;28;20671;-62
2022/12/08 06:38:15;;;;;;;9.23;1.80;;;5.90;1.00;;;;;;5072998;28;20162;-62
2022/12/08 06:40:40;;;;;;;8.05;2.00;;;5.90;6.20;;;;;;5071018;28;21770;-63
2022/12/08 06:43:06;;;;;;;15.60;2.38;;;5.90;13.00;;;;;;5088152;28;20052;-62
2022/12/08 06:45:31;;;;;;;12.10;2.20;;;5.80;20.30;;;;;;5091980;28;20032;-62
2022/12/08 06:47:57;;;;;;;9.15;1.77;;;5.80;29.10;;;;;;5088826;28;20581;-63
2022/12/08 06:50:23;;;;;;;12.57;2.00;;;5.70;39.90;;;;;;5083236;28;20425;-62
2022/12/08 06:52:48;;;;;;;13.48;2.20;;;5.90;50.20;;;;;;5088467;28;20474;-62
2022/12/08 06:55:14;;;;;;;9.45;2.17;;;5.90;56.10;;;;;;5090522;28;20040;-62
2022/12/08 06:57:39;;;;;;;17.25;2.10;;;5.90;56.40;;;;;;5079191;28;20051;-62
2022/12/08 07:00:06;;;;;;;15.00;1.83;;;5.90;54.90;;;;;;5087248;28;20557;-62
2022/12/08 07:02:32;;;;;;;9.70;2.00;;;5.90;42.40;;;;;;5088042;28;20043;-62
2022/12/08 07:04:57;;;;;;;12.55;2.30;;;5.90;20.80;;;;;;5083515;28;20047;-62
2022/12/08 07:07:23;;;;;;;12.10;2.17;;;6.00;1.00;;;;;;5086888;28;20044;-62
2022/12/08 07:09:48;;;;;;;9.35;2.13;;;6.00;1.00;;;;;;5085874;28;20032;-62
2022/12/08 07:12:14;;;;;;;8.95;2.15;;;6.10;1.00;;;;;;5082488;28;20100;-62
2022/12/08 07:14:40;;;;;;;12.73;2.25;;;6.20;1.00;;;;;;5091881;28;20046;-61
2022/12/08 07:17:05;;;;;;;11.50;2.28;;;6.20;1.00;;;;;;5087142;28;20113;-62
2022/12/08 07:19:31;;;;;;;12.02;2.55;;;6.30;1.00;;;;;;5083476;28;20051;-62
2022/12/08 07:21:57;;;;;;;9.68;1.92;;;6.30;99.90;;;;;;5083097;28;20033;-62
2022/12/08 07:24:22;;;;;;;9.05;2.03;;;6.30;99.90;;;;;;5089053;28;20055;-62
2022/12/08 07:26:48;;;;;;;9.68;2.15;;;6.40;99.90;;;;;;5090947;28;20124;-62
2022/12/08 07:29:13;;;;;;;13.68;2.15;;;6.40;99.90;;;;;;5088919;28;20035;-62
2022/12/08 07:31:39;;;;;;;7.78;1.85;;;6.50;99.90;;;;;;5090249;28;20042;-63
2022/12/08 07:34:05;;;;;;;8.35;1.95;;;6.50;99.90;;;;;;5082002;28;20028;-62
2022/12/08 07:36:31;;;;;;;8.75;1.98;;;6.50;99.90;;;;;;5084030;28;20037;-62
2022/12/08 07:38:57;;;;;;;9.13;2.10;;;6.50;99.90;;;;;;5085692;28;20638;-62
2022/12/08 07:41:24;;;;;;;14.80;1.95;;;6.50;99.90;;;;;;5081062;28;20047;-62
2022/12/08 07:43:50;;;;;;;11.85;1.70;;;6.50;99.90;;;;;;5085248;28;20029;-62
2022/12/08 07:46:18;;;;;;;14.68;2.13;;;6.50;99.90;;;;;;5081046;28;20387;-62
2022/12/08 07:48:45;;;;;;;21.40;2.20;;;6.40;99.90;;;;;;5082044;28;20074;-62
2022/12/08 07:51:12;;;;;;;11.98;1.80;;;6.40;99.90;;;;;;5092593;28;20043;-62
2022/12/08 07:53:39;;;;;;;11.25;1.95;;;6.40;99.90;;;;;;5080704;28;20036;-62
2022/12/08 07:56:06;;;;;;;10.98;1.88;;;6.30;99.90;;;;;;5083692;28;20103;-62
2022/12/08 07:58:32;;;;;;;13.15;1.98;;;6.40;99.90;;;;;;5073476;28;20051;-62
2022/12/08 08:00:58;;;;;;;12.50;2.22;;;6.30;99.90;;;;;;5079927;28;20043;-62
2022/12/08 08:03:24;;;;;;;6.80;1.80;;;6.30;99.90;;;;;;5089023;28;20043;-62
2022/12/08 08:05:49;;;;;;;11.23;1.83;;;6.20;99.90;;;;;;5091572;28;20493;-62
2022/12/08 08:08:16;;;;;;;9.50;1.98;;;6.20;99.90;;;;;;5092243;28;20488;-62
2022/12/08 08:10:41;;;;;;;9.85;1.67;;;6.20;99.90;;;;;;5089828;28;20509;-62
2022/12/08 08:13:07;;;;;;;12.30;1.90;;;6.20;99.90;;;;;;5087490;28;20069;-62
2022/12/08 08:15:33;;;;;;;7.72;1.77;;;6.20;99.90;;;;;;5085657;28;20040;-62
2022/12/08 08:17:58;;;;;;;4.82;1.33;;;6.20;99.90;;;;;;5089696;28;20043;-62
2022/12/08 08:20:24;;;;;;;9.93;1.60;;;6.20;99.90;;;;;;5087634;28;20044;-62
2022/12/08 08:22:51;;;;;;;8.63;1.80;;;6.30;99.90;;;;;;5091402;28;20036;-62
2022/12/08 08:25:18;;;;;;;8.32;1.80;;;6.30;99.90;;;;;;5090629;28;20032;-62
2022/12/08 08:27:44;;;;;;;6.65;1.40;;;6.40;99.90;;;;;;5079303;28;21060;-62
2022/12/08 08:30:11;;;;;;;13.43;1.90;;;6.40;99.90;;;;;;5071991;28;20033;-62
2022/12/08 08:32:37;;;;;;;7.05;2.20;;;6.40;99.90;;;;;;5081504;28;20071;-62
2022/12/08 08:35:04;;;;;;;12.75;2.30;;;6.30;99.90;;;;;;5075437;28;20375;-62
2022/12/08 08:37:29;;;;;;;14.13;2.28;;;6.40;99.90;;;;;;5092656;28;20416;-62
2022/12/08 08:39:55;;;;;;;11.73;1.88;;;6.40;99.90;;;;;;5091104;28;20036;-62
2022/12/08 08:42:21;;;;;;;6.78;1.80;;;6.40;99.90;;;;;;5082644;28;20044;-62
2022/12/08 08:44:47;;;;;;;9.98;1.67;;;6.30;99.90;;;;;;5072359;28;20033;-63
2022/12/08 08:47:12;;;;;;;6.63;1.83;;;6.30;99.90;;;;;;5091638;28;20561;-62
2022/12/08 08:49:38;;;;;;;9.52;2.03;;;6.30;99.90;;;;;;5082291;28;20055;-62
2022/12/08 08:52:04;;;;;;;13.52;1.80;;;6.30;99.90;;;;;;5077037;28;20036;-62
2022/12/08 08:54:30;;;;;;;8.27;1.77;;;6.30;99.90;;;;;;5078480;28;20059;-62
2022/12/08 08:56:58;;;;;;;8.20;1.80;;;6.30;99.90;;;;;;5084137;28;20069;-62
2022/12/08 08:59:25;;;;;;;12.90;1.88;;;6.30;99.90;;;;;;5081214;28;20498;-62
2022/12/08 09:01:50;;;;;;;9.88;1.67;;;6.40;99.90;;;;;;5075033;28;20032;-62
2022/12/08 09:04:16;;;;;;;6.22;1.92;;;6.40;99.90;;;;;;5087495;28;20044;-62
2022/12/08 09:06:44;;;;;;;7.40;1.50;;;6.50;99.90;;;;;;5091468;28;20110;-62
2022/12/08 09:09:10;;;;;;;9.35;1.80;;;6.50;99.90;;;;;;5090138;28;20111;-62
2022/12/08 09:11:36;;;;;;;8.98;2.03;;;6.70;99.90;;;;;;5078531;28;20135;-62
2022/12/08 09:14:02;;;;;;;8.82;1.58;;;6.70;1.00;;;;;;5082761;28;21663;-62
2022/12/08 09:16:28;;;;;;;7.13;1.60;;;6.90;1.00;;;;;;5088320;28;20060;-62
2022/12/08 09:18:53;;;;;;;12.63;2.35;;;6.90;1.00;;;;;;5088327;28;20070;-62
2022/12/08 09:21:22;;;;;;;11.40;2.40;;;6.90;1.00;;;;;;5083751;28;20036;-62
2022/12/08 09:23:53;;;;;;;11.05;2.38;;;7.00;1.00;;;;;;5085752;28;20046;-63
2022/12/08 09:26:21;;;;;;;8.05;2.00;;;7.00;1.00;;;;;;5073071;28;20432;-62
2022/12/08 09:28:48;;;;;;;6.65;1.60;;;7.10;1.00;;;;;;5089808;28;20036;-62
2022/12/08 09:31:15;;;;;;;9.15;1.63;;;7.10;1.00;;;;;;5086549;28;20036;-62
2022/12/08 09:33:41;;;;;;;6.65;1.42;;;7.20;1.00;;;;;;5085580;28;20078;-62
2022/12/08 09:36:08;;;;;;;7.95;1.50;;;7.20;1.00;;;;;;5091029;28;20436;-62
2022/12/08 09:38:34;;;;;;;11.25;1.42;;;7.20;1.00;;;;;;5082153;28;20066;-63
2022/12/08 09:41:03;;;;;;;9.27;1.45;;;7.20;99.90;;;;;;5077941;28;20052;-62
2022/12/08 09:43:50;;;;;;;5.43;1.10;;;7.20;99.90;;;;;;5088810;28;20131;-62
2022/12/08 09:46:18;;;;;;;4.15;1.20;;;7.20;99.90;;;;;;5087364;28;20570;-62
2022/12/08 09:48:55;;;;;;;8.65;1.65;;;7.20;99.90;;;;;;5083036;28;20178;-62
2022/12/08 09:51:26;;;;;;;10.82;1.77;;;7.10;99.90;;;;;;5089011;28;20032;-62
2022/12/08 09:54:23;;;;;;;10.73;1.63;;;7.20;99.90;;;;;;5081588;28;20032;-62
2022/12/08 09:56:53;;;;;;;3.30;0.98;;;7.20;99.90;;;;;;5078789;28;20218;-62
2022/12/08 09:59:30;;;;;;;6.22;0.90;;;7.30;99.90;;;;;;5078910;28;20555;-62
2022/12/08 10:01:55;;;;;;;3.35;0.90;;;7.30;99.90;;;;;;5089521;28;20131;-62
2022/12/08 10:04:36;;;;;;;3.33;0.80;;;7.30;99.90;;;;;;5087416;28;20124;-62
2022/12/08 10:07:25;;;;;;;2.50;0.80;;;7.30;99.90;;;;;;5082512;28;20070;-63
2022/12/08 10:10:06;;;;;;;7.15;1.00;;;7.20;99.90;;;;;;5090546;28;20066;-62
2022/12/08 10:12:41;;;;;;;2.60;0.90;;;7.20;99.90;;;;;;5091943;28;20127;-62
2022/12/08 10:15:07;;;;;;;3.72;0.95;;;7.30;99.90;;;;;;5087164;28;20047;-63
2022/12/08 10:17:40;;;;;;;9.63;1.00;;;7.30;99.90;;;;;;5087645;28;20048;-62
2022/12/08 10:20:20;;;;;;;4.97;0.75;;;7.30;99.90;;;;;;5088123;28;20036;-62
2022/12/08 10:23:11;;;;;;;4.40;1.05;;;7.10;99.90;;;;;;5090012;28;20036;-62
2022/12/08 10:26:01;;;;;;;2.72;1.20;;;6.80;99.90;;;;;;5082745;28;20130;-62
2022/12/08 10:28:27;;;;;;;4.68;1.00;;;6.60;99.90;;;;;;5094951;28;20043;-62
2022/12/08 10:30:53;;;;;;;3.70;0.93;;;6.40;99.90;;;;;;5087538;28;20390;-62
2022/12/08 10:33:20;;;;;;;4.18;1.13;;;6.40;99.90;;;;;;5088002;28;20042;-62
2022/12/08 10:35:48;;;;;;;9.75;1.15;;;6.40;99.90;;;;;;5086347;28;20046;-62
2022/12/08 10:38:33;;;;;;;5.07;1.45;;;6.60;99.90;;;;;;5086058;28;20036;-62
2022/12/08 10:41:10;;;;;;;4.00;0.82;;;6.60;99.90;;;;;;5092770;28;20044;-62
2022/12/08 10:43:42;;;;;;;3.90;1.00;;;6.70;99.90;;;;;;5081408;28;20043;-62
2022/12/08 10:46:14;;;;;;;6.22;1.20;;;6.80;99.90;;;;;;5086506;28;20032;-63
2022/12/08 10:48:55;;;;;;;10.13;1.30;;;6.80;99.90;;;;;;5089345;28;20047;-61
2022/12/08 10:51:38;;;;;;;6.85;1.20;;;6.90;99.90;;;;;;5085116;28;20046;-62
2022/12/08 10:54:07;;;;;;;5.05;1.05;;;6.90;99.90;;;;;;5079247;28;20048;-63
2022/12/08 10:56:32;;;;;;;4.95;1.05;;;6.90;99.90;;;;;;5092436;28;20039;-63
2022/12/08 10:59:18;;;;;;;4.88;1.00;;;7.00;99.90;;;;;;5094356;28;20035;-63
2022/12/08 11:01:50;;;;;;;13.32;1.23;;;6.90;99.90;;;;;;5080388;28;20037;-63
2022/12/08 11:04:22;;;;;;;5.55;1.08;;;6.90;99.90;;;;;;5087265;28;20043;-62
2022/12/08 11:06:49;;;;;;;4.20;1.15;;;6.70;99.90;;;;;;5090263;28;20036;-63
2022/12/08 11:09:15;;;;;;;2.28;0.75;;;6.60;99.90;;;;;;5085448;28;20494;-63
2022/12/08 11:11:57;;;;;;;4.20;0.93;;;6.60;99.90;;;;;;5091338;28;20039;-63
2022/12/08 11:14:41;;;;;;;9.18;1.40;;;6.50;99.90;;;;;;5089661;28;20038;-63
2022/12/08 11:17:20;;;;;;;10.65;1.20;;;6.50;99.90;;;;;;5086913;28;20060;-64
2022/12/08 11:19:58;;;;;;;2.33;0.80;;;6.50;99.90;;;;;;5088259;28;20050;-63
2022/12/08 11:22:36;;;;;;;3.88;0.90;;;6.40;99.90;;;;;;5082271;28;20497;-63
2022/12/08 11:25:07;;;;;;;5.82;1.30;;;6.40;99.90;;;;;;5082687;28;20446;-63
2022/12/08 11:27:35;;;;;;;4.50;1.20;;;6.50;99.90;;;;;;5088416;28;20619;-64
2022/12/08 11:30:24;;;;;;;5.65;0.85;;;6.50;99.90;;;;;;5079737;28;20032;-63
2022/12/08 11:33:00;;;;;;;3.88;0.95;;;6.60;99.90;;;;;;5088151;28;20040;-64
2022/12/08 11:35:36;;;;;;;8.10;1.30;;;6.60;99.90;;;;;;5086875;28;20080;-63
2022/12/08 11:38:05;;;;;;;6.85;1.30;;;6.70;99.90;;;;;;5080916;28;20040;-63
2022/12/08 11:40:36;;;;;;;6.85;1.35;;;6.80;99.90;;;;;;5083047;28;20198;-63
2022/12/08 11:43:18;;;;;;;4.82;1.52;;;6.90;99.90;;;;;;5079243;28;20074;-63
2022/12/08 11:45:45;;;;;;;5.03;1.13;;;6.80;99.90;;;;;;5088931;28;20028;-63
2022/12/08 11:48:24;;;;;;;3.67;1.10;;;6.70;99.90;;;;;;5085246;28;20059;-63
2022/12/08 11:50:55;;;;;;;2.03;0.70;;;6.60;99.90;;;;;;5078115;28;20040;-63
2022/12/08 11:53:43;;;;;;;1.85;0.98;;;6.60;1.00;;;;;;5081859;28;20098;-63
2022/12/08 11:56:20;;;;;;;3.50;1.00;;;6.60;1.00;;;;;;5089384;28;20052;-63
2022/12/08 11:58:58;;;;;;;4.80;1.20;;;6.60;1.00;;;;;;5082098;28;20370;-63
2022/12/08 12:01:25;;;;;;;3.45;1.10;;;6.70;1.00;;;;;;5081256;28;20051;-63
2022/12/08 12:03:53;;;;;;;6.90;0.90;;;6.70;1.00;;;;;;5075574;28;20040;-63
2022/12/08 12:06:43;;;;;;;3.50;0.98;;;6.60;1.00;;;;;;5088216;28;20497;-63
2022/12/08 12:09:31;;;;;;;2.97;0.98;;;6.80;1.00;;;;;;5081590;28;20040;-63
2022/12/08 12:12:18;;;;;;;4.20;1.35;;;6.80;1.00;;;;;;5078026;28;20076;-64
2022/12/08 12:14:44;;;;;;;15.52;1.20;;;6.90;1.00;;;;;;5075335;28;20066;-63
2022/12/08 12:17:39;;;;;;;4.90;0.80;;;7.80;1.00;;;;;;5079951;28;20494;-64
2022/12/08 12:20:30;;;;;;;4.40;0.90;;;7.00;1.00;;;;;;5086027;28;20028;-64
2022/12/08 12:23:04;;;;;;;18.80;8.43;;;6.90;1.00;;;;;;5086079;28;20067;-64
2022/12/08 12:25:32;;;;;;;8.73;4.05;;;7.00;1.00;;;;;;5080554;28;20032;-63
2022/12/08 12:28:03;;;;;;;60.67;31.88;;;7.00;1.00;;;;;;5083760;28;20112;-64
2022/12/08 12:30:54;;;;;;;30.70;12.90;;;7.00;99.90;;;;;;5079471;28;20036;-63
2022/12/08 12:33:21;;;;;;;7.95;2.90;;;6.90;99.90;;;;;;5063465;28;20044;-63
2022/12/08 12:35:47;;;;;;;5.10;2.05;;;6.90;99.90;;;;;;5077136;28;20048;-63
2022/12/08 12:41:25;;;;;;;3.05;1.02;;;6.80;99.90;;;;;;5077141;28;20130;-63
2022/12/08 12:44:12;;;;;;;3.53;1.02;;;6.70;99.90;;;;;;5085220;28;20043;-63
2022/12/08 12:46:39;;;;;;;2.20;0.60;;;6.70;99.90;;;;;;5081901;28;20040;-63
2022/12/08 12:49:39;;;;;;;7.45;1.35;;;6.70;99.90;;;;;;5085667;28;20032;-63
2022/12/08 12:52:19;;;;;;;5.20;1.30;;;6.60;99.90;;;;;;5087331;28;20038;-63
2022/12/08 12:54:48;;;;;;;4.85;1.42;;;6.60;99.90;;;;;;5080083;28;20071;-63
2022/12/08 12:57:14;;;;;;;2.65;1.40;;;6.60;99.90;;;;;;5076980;28;20040;-63
2022/12/08 13:00:05;;;;;;;5.57;2.00;;;6.60;99.90;;;;;;5070958;28;20040;-63
2022/12/08 13:02:44;;;;;;;14.60;4.38;;;6.50;99.90;;;;;;5076307;28;20054;-63
2022/12/08 13:05:33;;;;;;;13.63;5.45;;;6.60;99.90;;;;;;5075121;28;20082;-63
2022/12/08 13:08:05;;;;;;;7.00;1.95;;;6.70;99.90;;;;;;5081249;28;20075;-63
2022/12/08 13:10:36;;;;;;;2.30;1.10;;;6.70;99.90;;;;;;5086270;28;20110;-64
2022/12/08 13:13:11;;;;;;;3.13;1.10;;;6.80;99.90;;;;;;5087932;28;20150;-63
2022/12/08 13:15:38;;;;;;;4.60;1.27;;;8.90;99.90;;;;;;5076869;28;20064;-64
2022/12/08 13:18:06;;;;;;;2.92;0.93;;;6.80;99.90;;;;;;5092158;28;20058;-64
2022/12/08 13:20:41;;;;;;;5.15;1.10;;;6.80;99.90;;;;;;5081396;28;20436;-63